sensor_id;sensor_type;location;lat;lon;timestamp;pressure;altitude;pressure_sealevel;temperature
80680;BMP280;70043;51.982;-8.514;2023-12-04T00:01:56;97943.81;;;6.56
80680;BMP280;70043;51.982;-8.514;2023-12-04T00:04:25;97948.53;;;6.53
80680;BMP280;70043;51.982;-8.514;2023-12-04T00:06:52;97943.28;;;6.54
80680;BMP280;70043;51.982;-8.514;2023-12-04T00:09:19;97951.00;;;6.59
80680;BMP280;70043;51.982;-8.514;2023-12-04T00:11:46;97947.38;;;6.55
80680;BMP280;70043;51.982;-8.514;2023-12-04T00:14:13;97951.84;;;6.53
80680;BMP280;70043;51.982;-8.514;2023-12-04T00:16:40;97951.66;;;6.55
80680;BMP280;70043;51.982;-8.514;2023-12-04T00:19:07;97951.84;;;6.53
80680;BMP280;70043;51.982;-8.514;2023-12-04T00:21:35;97954.41;;;6.47
80680;BMP280;70043;51.982;-8.514;2023-12-04T00:24:03;97956.75;;;6.48
80680;BMP280;70043;51.982;-8.514;2023-12-04T00:26:31;97942.53;;;6.47
80680;BMP280;70043;51.982;-8.514;2023-12-04T00:28:57;97942.09;;;6.50
80680;BMP280;70043;51.982;-8.514;2023-12-04T00:31:24;97942.31;;;6.49
80680;BMP280;70043;51.982;-8.514;2023-12-04T00:33:51;97941.94;;;6.45
80680;BMP280;70043;51.982;-8.514;2023-12-04T00:36:18;97941.56;;;6.48
80680;BMP280;70043;51.982;-8.514;2023-12-04T00:38:47;97951.88;;;6.47
80680;BMP280;70043;51.982;-8.514;2023-12-04T00:41:14;97947.78;;;6.46
80680;BMP280;70043;51.982;-8.514;2023-12-04T00:43:41;97951.72;;;6.42
80680;BMP280;70043;51.982;-8.514;2023-12-04T00:46:08;97954.25;;;6.42
80680;BMP280;70043;51.982;-8.514;2023-12-04T00:48:35;97956.78;;;6.42
80680;BMP280;70043;51.982;-8.514;2023-12-04T00:51:02;97968.50;;;6.43
80680;BMP280;70043;51.982;-8.514;2023-12-04T00:53:29;97964.03;;;6.38
80680;BMP280;70043;51.982;-8.514;2023-12-04T00:55:57;97961.88;;;6.42
80680;BMP280;70043;51.982;-8.514;2023-12-04T00:58:24;97956.97;;;6.47
80680;BMP280;70043;51.982;-8.514;2023-12-04T01:00:51;97963.16;;;6.51
80680;BMP280;70043;51.982;-8.514;2023-12-04T01:03:18;97958.88;;;6.51
80680;BMP280;70043;51.982;-8.514;2023-12-04T01:05:45;97961.59;;;6.50
80680;BMP280;70043;51.982;-8.514;2023-12-04T01:08:12;97963.59;;;6.48
80680;BMP280;70043;51.982;-8.514;2023-12-04T01:10:39;97962.97;;;6.52
80680;BMP280;70043;51.982;-8.514;2023-12-04T01:13:08;97961.97;;;6.53
80680;BMP280;70043;51.982;-8.514;2023-12-04T01:15:35;97960.63;;;6.51
80680;BMP280;70043;51.982;-8.514;2023-12-04T01:18:02;97957.13;;;6.52
80680;BMP280;70043;51.982;-8.514;2023-12-04T01:20:29;97967.25;;;6.52
80680;BMP280;70043;51.982;-8.514;2023-12-04T01:22:56;97957.50;;;6.49
80680;BMP280;70043;51.982;-8.514;2023-12-04T01:25:22;97965.88;;;6.49
80680;BMP280;70043;51.982;-8.514;2023-12-04T01:27:49;97953.84;;;6.45
80680;BMP280;70043;51.982;-8.514;2023-12-04T01:30:18;97961.88;;;6.42
80680;BMP280;70043;51.982;-8.514;2023-12-04T01:32:45;97959.13;;;6.43
80680;BMP280;70043;51.982;-8.514;2023-12-04T01:35:12;97960.47;;;6.46
80680;BMP280;70043;51.982;-8.514;2023-12-04T01:37:39;97960.88;;;6.43
80680;BMP280;70043;51.982;-8.514;2023-12-04T01:40:07;97953.91;;;6.38
80680;BMP280;70043;51.982;-8.514;2023-12-04T01:42:35;97974.72;;;6.40
80680;BMP280;70043;51.982;-8.514;2023-12-04T01:45:03;97973.31;;;6.44
80680;BMP280;70043;51.982;-8.514;2023-12-04T01:47:32;97963.41;;;6.43
80680;BMP280;70043;51.982;-8.514;2023-12-04T01:49:59;97968.72;;;6.34
80680;BMP280;70043;51.982;-8.514;2023-12-04T01:52:26;97966.78;;;6.37
80680;BMP280;70043;51.982;-8.514;2023-12-04T01:54:53;97965.22;;;6.35
80680;BMP280;70043;51.982;-8.514;2023-12-04T01:57:20;97972.44;;;6.32
80680;BMP280;70043;51.982;-8.514;2023-12-04T01:59:48;97967.81;;;6.29
80680;BMP280;70043;51.982;-8.514;2023-12-04T02:02:15;97970.66;;;6.32
80680;BMP280;70043;51.982;-8.514;2023-12-04T02:04:44;97966.78;;;6.30
80680;BMP280;70043;51.982;-8.514;2023-12-04T02:07:11;97980.47;;;6.29
80680;BMP280;70043;51.982;-8.514;2023-12-04T02:09:38;97970.34;;;6.29
80680;BMP280;70043;51.982;-8.514;2023-12-04T02:12:05;97984.19;;;6.26
80680;BMP280;70043;51.982;-8.514;2023-12-04T02:14:32;97972.31;;;6.20
80680;BMP280;70043;51.982;-8.514;2023-12-04T02:17:01;97982.22;;;6.22
80680;BMP280;70043;51.982;-8.514;2023-12-04T02:19:29;97976.81;;;6.18
80680;BMP280;70043;51.982;-8.514;2023-12-04T02:21:57;97989.72;;;6.10
80680;BMP280;70043;51.982;-8.514;2023-12-04T02:24:26;97995.75;;;6.09
80680;BMP280;70043;51.982;-8.514;2023-12-04T02:26:56;97992.03;;;6.12
80680;BMP280;70043;51.982;-8.514;2023-12-04T02:29:30;97986.41;;;6.10
80680;BMP280;70043;51.982;-8.514;2023-12-04T02:31:58;97992.25;;;6.10
80680;BMP280;70043;51.982;-8.514;2023-12-04T02:34:27;97997.09;;;6.12
80680;BMP280;70043;51.982;-8.514;2023-12-04T02:36:56;98001.59;;;6.03
80680;BMP280;70043;51.982;-8.514;2023-12-04T02:39:26;98016.44;;;6.00
80680;BMP280;70043;51.982;-8.514;2023-12-04T02:41:53;98016.44;;;6.00
80680;BMP280;70043;51.982;-8.514;2023-12-04T02:44:20;98024.19;;;6.05
80680;BMP280;70043;51.982;-8.514;2023-12-04T02:46:47;98025.34;;;6.02
80680;BMP280;70043;51.982;-8.514;2023-12-04T02:49:14;98034.75;;;6.02
80680;BMP280;70043;51.982;-8.514;2023-12-04T02:51:41;98031.81;;;5.98
80680;BMP280;70043;51.982;-8.514;2023-12-04T02:54:08;98030.47;;;5.96
80680;BMP280;70043;51.982;-8.514;2023-12-04T02:56:36;98036.69;;;5.93
80680;BMP280;70043;51.982;-8.514;2023-12-04T02:59:03;98036.31;;;5.96
80680;BMP280;70043;51.982;-8.514;2023-12-04T03:01:30;98041.19;;;5.98
80680;BMP280;70043;51.982;-8.514;2023-12-04T03:03:57;98038.06;;;5.96
80680;BMP280;70043;51.982;-8.514;2023-12-04T03:06:24;98047.81;;;5.99
80680;BMP280;70043;51.982;-8.514;2023-12-04T03:08:51;98046.25;;;5.98
80680;BMP280;70043;51.982;-8.514;2023-12-04T03:11:18;98050.13;;;5.93
80680;BMP280;70043;51.982;-8.514;2023-12-04T03:13:47;98052.09;;;5.91
80680;BMP280;70043;51.982;-8.514;2023-12-04T03:16:17;98043.72;;;5.91
80680;BMP280;70043;51.982;-8.514;2023-12-04T03:18:44;98047.59;;;5.93
80680;BMP280;70043;51.982;-8.514;2023-12-04T03:21:11;98043.31;;;5.87
80680;BMP280;70043;51.982;-8.514;2023-12-04T03:23:38;98046.63;;;5.88
80680;BMP280;70043;51.982;-8.514;2023-12-04T03:26:06;98043.75;;;5.84
80680;BMP280;70043;51.982;-8.514;2023-12-04T03:28:33;98045.50;;;5.77
80680;BMP280;70043;51.982;-8.514;2023-12-04T03:31:01;98048.06;;;5.71
80680;BMP280;70043;51.982;-8.514;2023-12-04T03:33:28;98054.28;;;5.68
80680;BMP280;70043;51.982;-8.514;2023-12-04T03:35:55;98053.53;;;5.61
80680;BMP280;70043;51.982;-8.514;2023-12-04T03:38:22;98061.34;;;5.53
80680;BMP280;70043;51.982;-8.514;2023-12-04T03:40:49;98068.34;;;5.51
80680;BMP280;70043;51.982;-8.514;2023-12-04T03:43:16;98068.34;;;5.44
80680;BMP280;70043;51.982;-8.514;2023-12-04T03:45:43;98066.41;;;5.40
80680;BMP280;70043;51.982;-8.514;2023-12-04T03:48:11;98064.28;;;5.37
80680;BMP280;70043;51.982;-8.514;2023-12-04T03:50:38;98075.72;;;5.39
80680;BMP280;70043;51.982;-8.514;2023-12-04T03:53:05;98065.44;;;5.34
80680;BMP280;70043;51.982;-8.514;2023-12-04T03:55:32;98068.94;;;5.27
80680;BMP280;70043;51.982;-8.514;2023-12-04T03:57:59;98073.41;;;5.18
80680;BMP280;70043;51.982;-8.514;2023-12-04T04:00:26;98064.03;;;5.12
80680;BMP280;70043;51.982;-8.514;2023-12-04T04:02:53;98058.81;;;5.07
80680;BMP280;70043;51.982;-8.514;2023-12-04T04:05:22;98064.63;;;5.01
80680;BMP280;70043;51.982;-8.514;2023-12-04T04:07:49;98053.91;;;4.79
80680;BMP280;70043;51.982;-8.514;2023-12-04T04:10:16;98076.59;;;4.59
80680;BMP280;70043;51.982;-8.514;2023-12-04T04:12:42;98077.16;;;4.48
80680;BMP280;70043;51.982;-8.514;2023-12-04T04:15:10;98076.16;;;4.43
80680;BMP280;70043;51.982;-8.514;2023-12-04T04:17:37;98087.22;;;4.35
80680;BMP280;70043;51.982;-8.514;2023-12-04T04:20:05;98086.22;;;4.36
80680;BMP280;70043;51.982;-8.514;2023-12-04T04:22:33;98080.09;;;4.17
80680;BMP280;70043;51.982;-8.514;2023-12-04T04:25:25;98083.59;;;4.16
80680;BMP280;70043;51.982;-8.514;2023-12-04T04:27:52;98082.03;;;4.15
80680;BMP280;70043;51.982;-8.514;2023-12-04T04:30:19;98080.22;;;4.03
80680;BMP280;70043;51.982;-8.514;2023-12-04T04:32:46;98091.84;;;3.97
80680;BMP280;70043;51.982;-8.514;2023-12-04T04:35:13;98100.16;;;3.91
80680;BMP280;70043;51.982;-8.514;2023-12-04T04:37:41;98089.09;;;3.92
80680;BMP280;70043;51.982;-8.514;2023-12-04T04:40:09;98081.31;;;3.87
80680;BMP280;70043;51.982;-8.514;2023-12-04T04:42:36;98095.03;;;3.78
80680;BMP280;70043;51.982;-8.514;2023-12-04T04:45:03;98098.66;;;3.69
80680;BMP280;70043;51.982;-8.514;2023-12-04T04:47:30;98100.34;;;3.62
80680;BMP280;70043;51.982;-8.514;2023-12-04T04:49:57;98094.88;;;3.58
80680;BMP280;70043;51.982;-8.514;2023-12-04T04:52:24;98108.97;;;3.53
80680;BMP280;70043;51.982;-8.514;2023-12-04T04:54:53;98115.75;;;3.52
80680;BMP280;70043;51.982;-8.514;2023-12-04T04:57:20;98124.09;;;3.53
80680;BMP280;70043;51.982;-8.514;2023-12-04T04:59:47;98129.41;;;3.58
80680;BMP280;70043;51.982;-8.514;2023-12-04T05:02:13;98125.94;;;3.59
80680;BMP280;70043;51.982;-8.514;2023-12-04T05:04:40;98123.56;;;3.57
80680;BMP280;70043;51.982;-8.514;2023-12-04T05:07:07;98130.00;;;3.60
80680;BMP280;70043;51.982;-8.514;2023-12-04T05:09:34;98127.06;;;3.56
80680;BMP280;70043;51.982;-8.514;2023-12-04T05:12:04;98142.75;;;3.52
80680;BMP280;70043;51.982;-8.514;2023-12-04T05:14:31;98156.53;;;3.56
80680;BMP280;70043;51.982;-8.514;2023-12-04T05:16:57;98158.28;;;3.55
80680;BMP280;70043;51.982;-8.514;2023-12-04T05:19:24;98163.13;;;3.57
80680;BMP280;70043;51.982;-8.514;2023-12-04T05:21:51;98177.13;;;3.59
80680;BMP280;70043;51.982;-8.514;2023-12-04T05:24:18;98181.81;;;3.62
80680;BMP280;70043;51.982;-8.514;2023-12-04T05:26:45;98190.16;;;3.63
80680;BMP280;70043;51.982;-8.514;2023-12-04T05:29:14;98197.03;;;3.69
80680;BMP280;70043;51.982;-8.514;2023-12-04T05:31:41;98197.72;;;3.63
80680;BMP280;70043;51.982;-8.514;2023-12-04T05:34:07;98197.44;;;3.72
80680;BMP280;70043;51.982;-8.514;2023-12-04T05:36:34;98204.78;;;3.74
80680;BMP280;70043;51.982;-8.514;2023-12-04T05:39:01;98210.28;;;3.77
80680;BMP280;70043;51.982;-8.514;2023-12-04T05:41:30;98211.06;;;3.78
80680;BMP280;70043;51.982;-8.514;2023-12-04T05:43:57;98200.13;;;3.71
80680;BMP280;70043;51.982;-8.514;2023-12-04T05:46:25;98209.38;;;3.64
80680;BMP280;70043;51.982;-8.514;2023-12-04T05:48:53;98207.03;;;3.62
80680;BMP280;70043;51.982;-8.514;2023-12-04T05:51:20;98207.81;;;3.63
80680;BMP280;70043;51.982;-8.514;2023-12-04T05:53:47;98214.34;;;3.57
80680;BMP280;70043;51.982;-8.514;2023-12-04T05:56:14;98220.91;;;3.52
80680;BMP280;70043;51.982;-8.514;2023-12-04T05:58:41;98242.81;;;3.51
80680;BMP280;70043;51.982;-8.514;2023-12-04T06:01:09;98225.56;;;3.55
80680;BMP280;70043;51.982;-8.514;2023-12-04T06:03:37;98220.91;;;3.52
80680;BMP280;70043;51.982;-8.514;2023-12-04T06:06:05;98224.94;;;3.53
80680;BMP280;70043;51.982;-8.514;2023-12-04T06:08:32;98226.03;;;3.43
80680;BMP280;70043;51.982;-8.514;2023-12-04T06:10:59;98228.56;;;3.43
80680;BMP280;70043;51.982;-8.514;2023-12-04T06:13:26;98231.28;;;3.42
80680;BMP280;70043;51.982;-8.514;2023-12-04T06:15:52;98237.28;;;3.41
80680;BMP280;70043;51.982;-8.514;2023-12-04T06:18:19;98236.13;;;3.43
80680;BMP280;70043;51.982;-8.514;2023-12-04T06:20:48;98243.09;;;3.41
80680;BMP280;70043;51.982;-8.514;2023-12-04T06:23:15;98251.44;;;3.42
80680;BMP280;70043;51.982;-8.514;2023-12-04T06:25:43;98248.50;;;3.38
80680;BMP280;70043;51.982;-8.514;2023-12-04T06:28:11;98254.31;;;3.39
80680;BMP280;70043;51.982;-8.514;2023-12-04T06:30:38;98263.28;;;3.41
80680;BMP280;70043;51.982;-8.514;2023-12-04T06:33:06;98263.94;;;3.35
80680;BMP280;70043;51.982;-8.514;2023-12-04T06:35:34;98263.44;;;3.40
80680;BMP280;70043;51.982;-8.514;2023-12-04T06:38:05;98271.66;;;3.48
80680;BMP280;70043;51.982;-8.514;2023-12-04T06:40:33;98273.59;;;3.46
80680;BMP280;70043;51.982;-8.514;2023-12-04T06:43:01;98266.56;;;3.42
80680;BMP280;70043;51.982;-8.514;2023-12-04T06:45:28;98272.19;;;3.44
80680;BMP280;70043;51.982;-8.514;2023-12-04T06:47:59;98275.09;;;3.41
80680;BMP280;70043;51.982;-8.514;2023-12-04T06:50:26;98291.84;;;3.34
80680;BMP280;70043;51.982;-8.514;2023-12-04T06:52:53;98289.94;;;3.36
80680;BMP280;70043;51.982;-8.514;2023-12-04T06:55:21;98297.50;;;3.36
80680;BMP280;70043;51.982;-8.514;2023-12-04T06:57:48;98301.50;;;3.45
80680;BMP280;70043;51.982;-8.514;2023-12-04T07:00:16;98303.41;;;3.43
80680;BMP280;70043;51.982;-8.514;2023-12-04T07:02:43;98310.38;;;3.41
80680;BMP280;70043;51.982;-8.514;2023-12-04T07:05:10;98305.50;;;3.39
80680;BMP280;70043;51.982;-8.514;2023-12-04T07:07:37;98320.09;;;3.44
80680;BMP280;70043;51.982;-8.514;2023-12-04T07:10:05;98325.59;;;3.33
80680;BMP280;70043;51.982;-8.514;2023-12-04T07:12:33;98326.72;;;3.45
80680;BMP280;70043;51.982;-8.514;2023-12-04T07:15:00;98332.53;;;3.45
80680;BMP280;70043;51.982;-8.514;2023-12-04T07:17:27;98328.19;;;3.39
80680;BMP280;70043;51.982;-8.514;2023-12-04T07:19:54;98328.19;;;3.39
80680;BMP280;70043;51.982;-8.514;2023-12-04T07:22:21;98329.66;;;3.34
80680;BMP280;70043;51.982;-8.514;2023-12-04T07:24:48;98339.00;;;3.33
80680;BMP280;70043;51.982;-8.514;2023-12-04T07:27:15;98338.78;;;3.35
80680;BMP280;70043;51.982;-8.514;2023-12-04T07:29:43;98349.50;;;3.37
80680;BMP280;70043;51.982;-8.514;2023-12-04T07:32:11;98346.47;;;3.41
80680;BMP280;70043;51.982;-8.514;2023-12-04T07:34:37;98346.25;;;3.43
80680;BMP280;70043;51.982;-8.514;2023-12-04T07:37:04;98355.66;;;3.34
80680;BMP280;70043;51.982;-8.514;2023-12-04T07:39:31;98366.25;;;3.30
80680;BMP280;70043;51.982;-8.514;2023-12-04T07:41:58;98375.03;;;3.34
80680;BMP280;70043;51.982;-8.514;2023-12-04T07:44:25;98387.84;;;3.32
80680;BMP280;70043;51.982;-8.514;2023-12-04T07:46:53;98387.91;;;3.39
80680;BMP280;70043;51.982;-8.514;2023-12-04T07:49:20;98394.59;;;3.32
80680;BMP280;70043;51.982;-8.514;2023-12-04T07:51:47;98384.00;;;3.36
80680;BMP280;70043;51.982;-8.514;2023-12-04T07:54:14;98388.16;;;3.44
80680;BMP280;70043;51.982;-8.514;2023-12-04T07:56:41;98397.13;;;3.46
80680;BMP280;70043;51.982;-8.514;2023-12-04T07:59:08;98398.50;;;3.49
80680;BMP280;70043;51.982;-8.514;2023-12-04T08:01:35;98400.00;;;3.43
80680;BMP280;70043;51.982;-8.514;2023-12-04T08:04:04;98398.88;;;3.46
80680;BMP280;70043;51.982;-8.514;2023-12-04T08:06:31;98390.16;;;3.48
80680;BMP280;70043;51.982;-8.514;2023-12-04T08:08:58;98399.41;;;3.41
80680;BMP280;70043;51.982;-8.514;2023-12-04T08:11:25;98399.72;;;3.38
80680;BMP280;70043;51.982;-8.514;2023-12-04T08:13:52;98396.19;;;3.33
80680;BMP280;70043;51.982;-8.514;2023-12-04T08:16:19;98400.00;;;3.43
80680;BMP280;70043;51.982;-8.514;2023-12-04T08:18:46;98396.75;;;3.35
80680;BMP280;70043;51.982;-8.514;2023-12-04T08:21:14;98400.06;;;3.35
80680;BMP280;70043;51.982;-8.514;2023-12-04T08:23:42;98406.25;;;3.33
80680;BMP280;70043;51.982;-8.514;2023-12-04T08:26:09;98397.97;;;3.24
80680;BMP280;70043;51.982;-8.514;2023-12-04T08:28:36;98393.38;;;3.13
80680;BMP280;70043;51.982;-8.514;2023-12-04T08:31:07;98390.56;;;3.08
80680;BMP280;70043;51.982;-8.514;2023-12-04T08:33:35;98387.78;;;3.03
80680;BMP280;70043;51.982;-8.514;2023-12-04T08:36:03;98398.81;;;3.02
80680;BMP280;70043;51.982;-8.514;2023-12-04T08:38:31;98399.25;;;2.91
80680;BMP280;70043;51.982;-8.514;2023-12-04T08:40:58;98396.78;;;2.83
80680;BMP280;70043;51.982;-8.514;2023-12-04T08:43:25;98401.09;;;2.74
80680;BMP280;70043;51.982;-8.514;2023-12-04T08:45:54;98396.91;;;2.66
80680;BMP280;70043;51.982;-8.514;2023-12-04T08:48:21;98394.03;;;2.69
80680;BMP280;70043;51.982;-8.514;2023-12-04T08:50:48;98385.59;;;2.62
80680;BMP280;70043;51.982;-8.514;2023-12-04T08:53:15;98392.97;;;2.64
80680;BMP280;70043;51.982;-8.514;2023-12-04T08:55:44;98385.50;;;2.56
80680;BMP280;70043;51.982;-8.514;2023-12-04T08:58:11;98387.41;;;2.54
80680;BMP280;70043;51.982;-8.514;2023-12-04T09:00:38;98387.84;;;2.57
80680;BMP280;70043;51.982;-8.514;2023-12-04T09:03:08;98394.00;;;2.55
80680;BMP280;70043;51.982;-8.514;2023-12-04T09:05:36;98397.63;;;2.52
80680;BMP280;70043;51.982;-8.514;2023-12-04T09:08:03;98404.84;;;2.55
80680;BMP280;70043;51.982;-8.514;2023-12-04T09:10:30;98410.00;;;2.62
80680;BMP280;70043;51.982;-8.514;2023-12-04T09:12:58;98410.50;;;2.57
80680;BMP280;70043;51.982;-8.514;2023-12-04T09:15:25;98404.19;;;2.61
80680;BMP280;70043;51.982;-8.514;2023-12-04T09:17:52;98408.63;;;2.59
80680;BMP280;70043;51.982;-8.514;2023-12-04T09:20:19;98414.53;;;2.66
80680;BMP280;70043;51.982;-8.514;2023-12-04T09:22:46;98427.78;;;2.83
80680;BMP280;70043;51.982;-8.514;2023-12-04T09:25:14;98427.47;;;2.86
80680;BMP280;70043;51.982;-8.514;2023-12-04T09:27:41;98427.81;;;2.98
80680;BMP280;70043;51.982;-8.514;2023-12-04T09:30:10;98415.44;;;3.11
80680;BMP280;70043;51.982;-8.514;2023-12-04T09:32:37;98418.50;;;3.21
80680;BMP280;70043;51.982;-8.514;2023-12-04T09:35:05;98424.13;;;3.23
80680;BMP280;70043;51.982;-8.514;2023-12-04T09:37:32;98427.25;;;3.25
80680;BMP280;70043;51.982;-8.514;2023-12-04T09:39:59;98418.56;;;3.28
80680;BMP280;70043;51.982;-8.514;2023-12-04T09:42:26;98418.94;;;3.39
80680;BMP280;70043;51.982;-8.514;2023-12-04T09:44:53;98426.44;;;3.47
80680;BMP280;70043;51.982;-8.514;2023-12-04T09:47:23;98430.44;;;3.42
80680;BMP280;70043;51.982;-8.514;2023-12-04T09:49:51;98435.28;;;3.43
80680;BMP280;70043;51.982;-8.514;2023-12-04T09:52:19;98444.69;;;3.49
80680;BMP280;70043;51.982;-8.514;2023-12-04T09:54:46;98436.59;;;3.54
80680;BMP280;70043;51.982;-8.514;2023-12-04T09:57:13;98436.44;;;3.70
80680;BMP280;70043;51.982;-8.514;2023-12-04T09:59:43;98438.59;;;3.73
80680;BMP280;70043;51.982;-8.514;2023-12-04T10:02:11;98435.63;;;3.84
80680;BMP280;70043;51.982;-8.514;2023-12-04T10:04:40;98438.94;;;3.85
80680;BMP280;70043;51.982;-8.514;2023-12-04T10:07:08;98439.19;;;3.90
80680;BMP280;70043;51.982;-8.514;2023-12-04T10:09:35;98445.63;;;3.93
80680;BMP280;70043;51.982;-8.514;2023-12-04T10:12:02;98446.06;;;3.96
80680;BMP280;70043;51.982;-8.514;2023-12-04T10:14:29;98443.53;;;3.96
80680;BMP280;70043;51.982;-8.514;2023-12-04T10:16:56;98446.84;;;3.97
80680;BMP280;70043;51.982;-8.514;2023-12-04T10:19:24;98434.41;;;3.95
80680;BMP280;70043;51.982;-8.514;2023-12-04T10:21:54;98444.06;;;4.06
80680;BMP280;70043;51.982;-8.514;2023-12-04T10:24:29;98457.47;;;4.07
80680;BMP280;70043;51.982;-8.514;2023-12-04T10:26:56;98441.16;;;4.09
80680;BMP280;70043;51.982;-8.514;2023-12-04T10:29:23;98452.41;;;4.07
80680;BMP280;70043;51.982;-8.514;2023-12-04T10:31:51;98447.78;;;4.10
80680;BMP280;70043;51.982;-8.514;2023-12-04T10:34:21;98450.63;;;4.22
80680;BMP280;70043;51.982;-8.514;2023-12-04T10:36:52;98454.44;;;4.18
80680;BMP280;70043;51.982;-8.514;2023-12-04T10:39:20;98459.75;;;4.23
80680;BMP280;70043;51.982;-8.514;2023-12-04T10:41:59;98464.66;;;4.24
80680;BMP280;70043;51.982;-8.514;2023-12-04T10:44:26;98480.31;;;4.35
80680;BMP280;70043;51.982;-8.514;2023-12-04T10:46:55;98471.53;;;4.37
80680;BMP280;70043;51.982;-8.514;2023-12-04T10:49:26;98473.47;;;4.50
80680;BMP280;70043;51.982;-8.514;2023-12-04T10:51:56;98488.44;;;4.51
80680;BMP280;70043;51.982;-8.514;2023-12-04T10:54:25;98476.31;;;4.47
80680;BMP280;70043;51.982;-8.514;2023-12-04T10:56:52;98486.81;;;4.44
80680;BMP280;70043;51.982;-8.514;2023-12-04T10:59:26;98494.88;;;4.54
80680;BMP280;70043;51.982;-8.514;2023-12-04T11:01:55;98502.69;;;4.59
80680;BMP280;70043;51.982;-8.514;2023-12-04T11:04:25;98521.84;;;4.68
80680;BMP280;70043;51.982;-8.514;2023-12-04T11:06:53;98506.31;;;4.71
80680;BMP280;70043;51.982;-8.514;2023-12-04T11:09:22;98511.59;;;4.76
80680;BMP280;70043;51.982;-8.514;2023-12-04T11:11:58;98516.63;;;4.76
80680;BMP280;70043;51.982;-8.514;2023-12-04T11:14:31;98527.44;;;4.85
80680;BMP280;70043;51.982;-8.514;2023-12-04T11:17:03;98532.06;;;4.81
80680;BMP280;70043;51.982;-8.514;2023-12-04T11:19:36;98527.72;;;4.96
80680;BMP280;70043;51.982;-8.514;2023-12-04T11:22:07;98531.53;;;5.07
80680;BMP280;70043;51.982;-8.514;2023-12-04T11:24:36;98520.66;;;5.13
80680;BMP280;70043;51.982;-8.514;2023-12-04T11:27:03;98531.63;;;5.20
80680;BMP280;70043;51.982;-8.514;2023-12-04T11:29:32;98513.19;;;5.26
80680;BMP280;70043;51.982;-8.514;2023-12-04T11:31:59;98520.66;;;5.34
80680;BMP280;70043;51.982;-8.514;2023-12-04T11:34:26;98526.13;;;5.38
80680;BMP280;70043;51.982;-8.514;2023-12-04T11:36:53;98523.81;;;5.43
80680;BMP280;70043;51.982;-8.514;2023-12-04T11:39:21;98529.09;;;5.48
80680;BMP280;70043;51.982;-8.514;2023-12-04T11:41:53;98536.59;;;5.63
80680;BMP280;70043;51.982;-8.514;2023-12-04T11:44:20;98543.28;;;5.70
80680;BMP280;70043;51.982;-8.514;2023-12-04T11:46:59;98550.09;;;5.76
80680;BMP280;70043;51.982;-8.514;2023-12-04T11:49:30;98547.47;;;5.91
80680;BMP280;70043;51.982;-8.514;2023-12-04T11:51:57;98542.78;;;5.88
80680;BMP280;70043;51.982;-8.514;2023-12-04T11:54:26;98543.56;;;5.88
80680;BMP280;70043;51.982;-8.514;2023-12-04T11:57:20;98535.41;;;5.93
80680;BMP280;70043;51.982;-8.514;2023-12-04T11:59:49;98544.63;;;6.01
80680;BMP280;70043;51.982;-8.514;2023-12-04T12:02:17;98552.03;;;6.09
80680;BMP280;70043;51.982;-8.514;2023-12-04T12:04:44;98553.25;;;6.19
80680;BMP280;70043;51.982;-8.514;2023-12-04T12:07:11;98554.44;;;6.30
80680;BMP280;70043;51.982;-8.514;2023-12-04T12:09:38;98552.56;;;6.39
80680;BMP280;70043;51.982;-8.514;2023-12-04T12:12:06;98552.75;;;6.44
80680;BMP280;70043;51.982;-8.514;2023-12-04T12:14:35;98545.22;;;6.63
80680;BMP280;70043;51.982;-8.514;2023-12-04T12:17:03;98553.78;;;6.69
80680;BMP280;70043;51.982;-8.514;2023-12-04T12:19:30;98545.19;;;6.70
80680;BMP280;70043;51.982;-8.514;2023-12-04T12:21:57;98555.34;;;6.76
80680;BMP280;70043;51.982;-8.514;2023-12-04T12:24:24;98552.66;;;6.85
80680;BMP280;70043;51.982;-8.514;2023-12-04T12:26:51;98556.97;;;6.91
80680;BMP280;70043;51.982;-8.514;2023-12-04T12:29:18;98555.81;;;7.06
80680;BMP280;70043;51.982;-8.514;2023-12-04T12:31:47;98555.78;;;7.19
80680;BMP280;70043;51.982;-8.514;2023-12-04T12:34:14;98557.72;;;7.24
80680;BMP280;70043;51.982;-8.514;2023-12-04T12:36:41;98560.66;;;7.21
80680;BMP280;70043;51.982;-8.514;2023-12-04T12:39:08;98557.53;;;7.32
80680;BMP280;70043;51.982;-8.514;2023-12-04T12:41:35;98559.69;;;7.42
80680;BMP280;70043;51.982;-8.514;2023-12-04T12:44:02;98567.69;;;7.45
80680;BMP280;70043;51.982;-8.514;2023-12-04T12:46:29;98563.00;;;7.49
80680;BMP280;70043;51.982;-8.514;2023-12-04T12:48:58;98566.66;;;7.59
80680;BMP280;70043;51.982;-8.514;2023-12-04T12:51:26;98569.03;;;7.68
80680;BMP280;70043;51.982;-8.514;2023-12-04T12:53:53;98573.31;;;7.74
80680;BMP280;70043;51.982;-8.514;2023-12-04T12:56:20;98570.94;;;7.85
80680;BMP280;70043;51.982;-8.514;2023-12-04T12:58:47;98570.31;;;7.96
80680;BMP280;70043;51.982;-8.514;2023-12-04T13:01:15;98568.97;;;7.94
80680;BMP280;70043;51.982;-8.514;2023-12-04T13:03:45;98569.34;;;7.91
80680;BMP280;70043;51.982;-8.514;2023-12-04T13:06:14;98558.59;;;7.95
80680;BMP280;70043;51.982;-8.514;2023-12-04T13:08:41;98563.69;;;7.95
80680;BMP280;70043;51.982;-8.514;2023-12-04T13:11:08;98564.63;;;8.01
80680;BMP280;70043;51.982;-8.514;2023-12-04T13:13:34;98557.97;;;8.00
80680;BMP280;70043;51.982;-8.514;2023-12-04T13:16:02;98560.56;;;7.93
80680;BMP280;70043;51.982;-8.514;2023-12-04T13:18:28;98563.06;;;8.00
80680;BMP280;70043;51.982;-8.514;2023-12-04T13:20:57;98563.47;;;7.97
80680;BMP280;70043;51.982;-8.514;2023-12-04T13:23:25;98571.50;;;7.94
80680;BMP280;70043;51.982;-8.514;2023-12-04T13:25:53;98565.63;;;7.93
80680;BMP280;70043;51.982;-8.514;2023-12-04T13:28:20;98574.81;;;7.88
80680;BMP280;70043;51.982;-8.514;2023-12-04T13:30:47;98571.47;;;8.00
80680;BMP280;70043;51.982;-8.514;2023-12-04T13:33:14;98567.19;;;7.94
80680;BMP280;70043;51.982;-8.514;2023-12-04T13:35:41;98573.47;;;7.85
80680;BMP280;70043;51.982;-8.514;2023-12-04T13:38:08;98584.22;;;7.81
80680;BMP280;70043;51.982;-8.514;2023-12-04T13:40:40;98579.97;;;7.75
80680;BMP280;70043;51.982;-8.514;2023-12-04T13:43:07;98571.94;;;7.78
80680;BMP280;70043;51.982;-8.514;2023-12-04T13:45:51;98572.31;;;7.81
80680;BMP280;70043;51.982;-8.514;2023-12-04T13:48:20;98562.34;;;7.80
80680;BMP280;70043;51.982;-8.514;2023-12-04T13:50:47;98571.53;;;7.81
80680;BMP280;70043;51.982;-8.514;2023-12-04T13:53:15;98555.69;;;7.79
80680;BMP280;70043;51.982;-8.514;2023-12-04T13:55:51;98568.03;;;7.69
80680;BMP280;70043;51.982;-8.514;2023-12-04T13:58:37;98558.88;;;7.68
80680;BMP280;70043;51.982;-8.514;2023-12-04T14:01:08;98568.25;;;7.60
80680;BMP280;70043;51.982;-8.514;2023-12-04T14:03:39;98573.13;;;7.75
80680;BMP280;70043;51.982;-8.514;2023-12-04T14:06:07;98571.16;;;7.77
80680;BMP280;70043;51.982;-8.514;2023-12-04T14:08:35;98554.72;;;7.80
80680;BMP280;70043;51.982;-8.514;2023-12-04T14:11:04;98567.03;;;7.70
80680;BMP280;70043;51.982;-8.514;2023-12-04T14:13:32;98568.66;;;7.57